createdAt,value
2019-03-24T00:00:05.819Z,93.07
2019-03-24T00:01:05.791Z,93.07
2019-03-24T00:02:05.773Z,92.86
2019-03-24T00:03:05.724Z,93.18
2019-03-24T00:04:05.689Z,92.76
2019-03-24T00:05:05.663Z,93.53
2019-03-24T00:06:05.626Z,93.18
2019-03-24T00:07:05.613Z,93.01
2019-03-24T00:08:05.567Z,93.12
2019-03-24T00:09:05.531Z,94.04
2019-03-24T00:10:05.496Z,93.63
2019-03-24T00:11:05.474Z,93.01
2019-03-24T00:12:05.462Z,93.12
2019-03-24T00:13:05.420Z,93.43
2019-03-24T00:14:05.363Z,93.22
2019-03-24T00:15:05.329Z,93.01
2019-03-24T00:16:05.313Z,92.80
2019-03-24T00:17:05.286Z,92.50
2019-03-24T00:18:05.228Z,92.50
2019-03-24T00:19:05.196Z,92.60
2019-03-24T00:20:05.178Z,91.77
2019-03-24T00:21:05.141Z,92.29
2019-03-24T00:22:05.133Z,91.46
2019-03-24T00:23:05.065Z,91.16
2019-03-24T00:24:05.046Z,91.61
2019-03-24T00:25:05.000Z,91.40
2019-03-24T00:26:04.977Z,90.68
2019-03-24T00:27:04.975Z,90.47
2019-03-24T00:28:04.900Z,90.89
2019-03-24T00:29:04.880Z,90.68
2019-03-24T00:30:04.835Z,90.89
2019-03-24T00:31:04.800Z,89.34
2019-03-24T00:32:04.781Z,89.44
2019-03-24T00:33:04.767Z,88.41
2019-03-24T00:34:04.714Z,87.89
2019-03-24T00:35:04.671Z,88.10
2019-03-24T00:36:04.637Z,87.48
2019-03-24T00:37:04.604Z,87.89
2019-03-24T00:38:04.589Z,87.17
2019-03-24T00:39:04.542Z,86.96
2019-03-24T00:40:04.502Z,86.96
2019-03-24T00:41:04.477Z,86.24
2019-03-24T00:42:04.445Z,86.03
2019-03-24T00:43:04.429Z,85.62
2019-03-24T00:44:04.373Z,85.41
2019-03-24T00:45:04.338Z,85.31
2019-03-24T00:46:04.303Z,85.41
2019-03-24T00:47:04.275Z,85.31
2019-03-24T00:48:04.263Z,85.31
2019-03-24T00:49:04.211Z,85.31
2019-03-24T00:50:04.174Z,84.89
2019-03-24T00:51:04.144Z,85.72
2019-03-24T00:52:04.109Z,85.10
2019-03-24T00:53:04.108Z,85.41
2019-03-24T00:54:04.041Z,85.45
2019-03-24T00:55:04.006Z,85.66
2019-03-24T00:56:03.974Z,85.04
2019-03-24T00:57:03.940Z,85.04
2019-03-24T00:58:03.941Z,85.24
2019-03-24T00:59:03.871Z,85.35
2019-03-24T01:00:03.843Z,84.21
2019-03-24T01:01:03.807Z,84.94
2019-03-24T01:02:03.773Z,84.00
2019-03-24T01:03:03.766Z,84.21
2019-03-24T01:04:03.733Z,84.36
2019-03-24T01:05:03.674Z,84.00
2019-03-24T01:06:03.641Z,84.00
2019-03-24T01:07:03.611Z,83.94
2019-03-24T01:08:03.602Z,83.32
2019-03-24T01:09:03.543Z,83.94
2019-03-24T01:10:03.510Z,84.05
2019-03-24T01:11:03.473Z,83.42
2019-03-24T01:12:03.446Z,83.94
2019-03-24T01:13:03.432Z,83.84
2019-03-24T01:14:03.376Z,83.94
2019-03-24T01:15:03.344Z,83.84
2019-03-24T01:16:03.307Z,83.94
2019-03-24T01:17:03.274Z,83.94
2019-03-24T01:18:03.263Z,83.84
2019-03-24T01:19:03.206Z,83.84
2019-03-24T01:20:03.176Z,83.67
2019-03-24T01:21:03.143Z,84.05
2019-03-24T01:22:03.103Z,83.98
2019-03-24T01:23:03.096Z,83.87
2019-03-24T01:24:03.064Z,83.98
2019-03-24T01:25:03.006Z,83.84
2019-03-24T01:26:02.981Z,83.25
2019-03-24T01:27:02.941Z,83.01
2019-03-24T01:28:02.954Z,83.05
2019-03-24T01:29:02.875Z,82.95
2019-03-24T01:30:02.879Z,82.08
2019-03-24T01:31:02.810Z,81.87
2019-03-24T01:32:02.771Z,81.81
2019-03-24T01:33:02.735Z,82.12
2019-03-24T01:34:02.726Z,82.08
2019-03-24T01:35:02.667Z,82.12
2019-03-24T01:36:02.641Z,81.91
2019-03-24T01:37:02.602Z,82.18
2019-03-24T01:38:02.597Z,82.12
2019-03-24T01:39:02.561Z,81.91
2019-03-24T01:40:02.520Z,82.12
2019-03-24T01:41:02.467Z,82.12
2019-03-24T01:42:02.439Z,82.12
2019-03-24T01:43:02.430Z,82.12
2019-03-24T01:44:02.393Z,82.53
2019-03-24T01:45:02.331Z,82.78
2019-03-24T01:46:02.301Z,82.46
2019-03-24T01:47:02.273Z,82.36
2019-03-24T01:48:02.240Z,82.98
2019-03-24T01:49:02.221Z,83.29
2019-03-24T01:50:02.161Z,83.50
2019-03-24T01:51:02.135Z,83.61
2019-03-24T01:52:02.117Z,83.29
2019-03-24T01:53:02.064Z,84.01
2019-03-24T01:54:02.085Z,84.12
2019-03-24T01:55:02.001Z,83.85
2019-03-24T01:56:02.114Z,83.64
2019-03-24T01:57:01.938Z,84.16
2019-03-24T01:58:01.998Z,84.41
2019-03-24T01:59:01.889Z,84.27
2019-03-24T02:00:01.832Z,85.44
2019-03-24T02:01:01.803Z,85.65
2019-03-24T02:02:01.769Z,85.75
2019-03-24T02:03:01.725Z,85.58
2019-03-24T02:04:01.722Z,85.58
2019-03-24T02:05:01.662Z,85.58
2019-03-24T02:06:01.628Z,86.00
2019-03-24T02:07:01.593Z,86.35
2019-03-24T02:08:01.558Z,86.66
2019-03-24T02:09:01.559Z,86.55
2019-03-24T02:10:01.494Z,86.35
2019-03-24T02:11:01.466Z,87.38
2019-03-24T02:12:01.431Z,87.43
2019-03-24T02:13:01.393Z,87.22
2019-03-24T02:14:01.399Z,87.43
2019-03-24T02:15:01.322Z,87.84
2019-03-24T02:16:09.045Z,88.15
2019-03-24T02:17:01.282Z,88.30
2019-03-24T02:18:01.223Z,88.51
2019-03-24T02:19:01.219Z,88.71
2019-03-24T02:20:01.156Z,88.30
2019-03-24T02:21:01.120Z,88.85
2019-03-24T02:22:01.092Z,88.90
2019-03-24T02:23:01.062Z,89.73
2019-03-24T02:24:01.088Z,90.14
2019-03-24T02:25:00.983Z,90.04
2019-03-24T02:26:00.964Z,90.45
2019-03-24T02:27:00.917Z,90.29
2019-03-24T02:28:00.883Z,90.35
2019-03-24T02:29:00.877Z,90.39
2019-03-24T02:30:00.818Z,90.85
2019-03-24T02:31:00.780Z,91.58
2019-03-24T02:32:00.750Z,91.27
2019-03-24T02:33:00.714Z,91.78
2019-03-24T02:34:00.685Z,91.68
2019-03-24T02:35:00.673Z,91.89
2019-03-24T02:36:00.624Z,92.93
2019-03-24T02:37:00.580Z,92.72
2019-03-24T02:38:00.548Z,93.24
2019-03-24T02:39:00.518Z,92.93
2019-03-24T02:40:00.514Z,92.93
2019-03-24T02:41:00.456Z,93.66
2019-03-24T02:42:00.424Z,93.45
2019-03-24T02:43:00.373Z,93.45
2019-03-24T02:44:00.340Z,93.35
2019-03-24T02:45:00.456Z,93.39
2019-03-24T02:46:00.272Z,93.35
2019-03-24T02:47:00.252Z,93.55
2019-03-24T02:48:00.221Z,93.76
2019-03-24T02:49:00.179Z,93.70
2019-03-24T02:50:00.494Z,93.18
2019-03-24T02:51:00.098Z,93.91
2019-03-24T02:52:00.072Z,93.39
2019-03-24T02:53:00.029Z,93.80
2019-03-24T02:54:00.003Z,93.74
2019-03-24T02:54:59.985Z,93.54
2019-03-24T02:55:59.938Z,94.37
2019-03-24T02:56:59.953Z,94.47
2019-03-24T02:57:59.855Z,94.37
2019-03-24T02:58:59.831Z,94.89
2019-03-24T02:59:59.814Z,94.89
2019-03-24T03:00:59.757Z,94.89
2019-03-24T03:01:59.724Z,95.45
2019-03-24T03:02:59.688Z,95.20
2019-03-24T03:03:59.651Z,95.20
2019-03-24T03:04:59.643Z,95.30
2019-03-24T03:05:59.597Z,95.03
2019-03-24T03:06:59.560Z,95.51
2019-03-24T03:07:59.508Z,95.40
2019-03-24T03:08:59.489Z,95.51
2019-03-24T03:09:59.484Z,95.14
2019-03-24T03:10:59.409Z,95.66
2019-03-24T03:11:59.406Z,95.25
2019-03-24T03:12:59.334Z,95.56
2019-03-24T03:13:59.303Z,95.45
2019-03-24T03:14:59.298Z,95.45
2019-03-24T03:15:59.233Z,95.14
2019-03-24T03:16:59.203Z,95.14
2019-03-24T03:17:59.164Z,95.56
2019-03-24T03:18:59.130Z,95.14
2019-03-24T03:19:59.119Z,95.56
2019-03-24T03:20:59.058Z,95.14
2019-03-24T03:21:59.099Z,95.50
2019-03-24T03:22:58.999Z,95.45
2019-03-24T03:23:58.960Z,95.39
2019-03-24T03:24:58.951Z,95.81
2019-03-24T03:25:58.931Z,95.91
2019-03-24T03:26:58.850Z,96.01
2019-03-24T03:27:58.817Z,96.64
2019-03-24T03:28:58.778Z,96.43
2019-03-24T03:29:58.781Z,96.33
2019-03-24T03:30:58.713Z,97.16
2019-03-24T03:31:58.698Z,96.75
2019-03-24T03:32:58.644Z,96.91
2019-03-24T03:33:58.610Z,97.01
2019-03-24T03:34:58.603Z,97.12
2019-03-24T03:35:58.546Z,97.43
2019-03-24T03:36:58.512Z,97.33
2019-03-24T03:37:58.479Z,97.22
2019-03-24T03:38:58.436Z,97.59
2019-03-24T03:39:58.641Z,97.43
2019-03-24T03:40:58.392Z,97.38
2019-03-24T03:41:58.326Z,97.43
2019-03-24T03:42:58.296Z,97.43
2019-03-24T03:43:58.264Z,97.12
2019-03-24T03:44:58.231Z,97.12
2019-03-24T03:45:58.215Z,98.05
2019-03-24T03:46:58.155Z,97.74
2019-03-24T03:47:58.128Z,97.74
2019-03-24T03:48:58.112Z,98.05
2019-03-24T03:49:58.052Z,97.95
2019-03-24T03:50:58.046Z,97.95
2019-03-24T03:51:57.981Z,97.95
2019-03-24T03:52:57.948Z,97.74
2019-03-24T03:53:59.240Z,97.74
2019-03-24T03:54:57.899Z,97.74
2019-03-24T03:55:57.861Z,98.05
2019-03-24T03:56:57.814Z,97.70
2019-03-24T03:57:57.766Z,97.53
2019-03-24T03:58:57.743Z,98.11
2019-03-24T03:59:57.701Z,97.59
2019-03-24T04:00:57.688Z,98.11
2019-03-24T04:01:57.632Z,98.43
2019-03-24T04:02:57.601Z,97.80
2019-03-24T04:03:57.586Z,98.01
2019-03-24T04:04:57.529Z,97.59
2019-03-24T04:05:57.527Z,97.70
2019-03-24T04:06:57.461Z,97.74
2019-03-24T04:07:57.439Z,97.85
2019-03-24T04:08:57.388Z,97.74
2019-03-24T04:09:57.351Z,97.58
2019-03-24T04:10:57.354Z,97.37
2019-03-24T04:11:57.284Z,97.37
2019-03-24T04:12:57.251Z,97.27
2019-03-24T04:13:57.211Z,97.00
2019-03-24T04:14:57.189Z,97.00
2019-03-24T04:15:57.171Z,97.20
2019-03-24T04:17:06.861Z,96.83
2019-03-24T04:17:57.070Z,96.94
2019-03-24T04:18:57.032Z,96.94
2019-03-24T04:19:57.001Z,96.83
2019-03-24T04:20:58.365Z,96.77
2019-03-24T04:21:56.930Z,96.88
2019-03-24T04:22:56.911Z,97.19
2019-03-24T04:23:56.864Z,96.88
2019-03-24T04:24:56.825Z,96.88
2019-03-24T04:25:56.816Z,96.98
2019-03-24T04:26:56.809Z,96.98
2019-03-24T04:27:56.732Z,96.88
2019-03-24T04:28:56.755Z,96.92
2019-03-24T04:29:56.653Z,96.77
2019-03-24T04:30:56.653Z,97.61
2019-03-24T04:31:56.583Z,97.46
2019-03-24T04:32:56.544Z,97.98
2019-03-24T04:33:56.516Z,97.83
2019-03-24T04:34:56.483Z,98.04
2019-03-24T04:35:56.436Z,98.31
2019-03-24T04:36:56.432Z,99.10
2019-03-24T04:37:56.367Z,98.88
2019-03-24T04:38:56.334Z,99.36
2019-03-24T04:39:56.315Z,99.15
2019-03-24T04:40:56.266Z,98.80
2019-03-24T04:41:56.259Z,98.69
2019-03-24T04:42:56.192Z,98.69
2019-03-24T04:43:56.166Z,99.11
2019-03-24T04:44:56.130Z,99.21
2019-03-24T04:45:56.089Z,98.90
2019-03-24T04:46:56.211Z,98.90
2019-03-24T04:47:56.030Z,98.90
2019-03-24T04:48:55.987Z,98.80
2019-03-24T04:49:55.966Z,98.38
2019-03-24T04:50:55.919Z,98.54
2019-03-24T04:51:55.906Z,98.75
2019-03-24T04:52:55.844Z,98.50
2019-03-24T04:53:55.871Z,98.44
2019-03-24T04:54:55.807Z,98.65
2019-03-24T04:55:55.766Z,98.29
2019-03-24T04:56:55.741Z,98.13
2019-03-24T04:57:55.675Z,98.13
2019-03-24T04:58:55.662Z,97.81
2019-03-24T04:59:55.612Z,97.92
2019-03-24T05:00:55.614Z,97.61
2019-03-24T05:01:55.566Z,97.50
2019-03-24T05:02:55.515Z,97.14
2019-03-24T05:03:55.478Z,97.40
2019-03-24T05:04:55.446Z,96.94
2019-03-24T05:05:55.406Z,96.57
2019-03-24T05:06:55.410Z,96.57
2019-03-24T05:07:55.338Z,96.88
2019-03-24T05:08:55.344Z,96.47
2019-03-24T05:09:55.265Z,96.57
2019-03-24T05:10:55.266Z,96.36
2019-03-24T05:11:55.242Z,96.42
2019-03-24T05:12:55.161Z,96.47
2019-03-24T05:13:55.130Z,96.31
2019-03-24T05:14:55.097Z,95.73
2019-03-24T05:15:55.060Z,95.90
2019-03-24T05:16:55.055Z,95.48
2019-03-24T05:17:54.989Z,95.17
2019-03-24T05:18:54.969Z,95.03
2019-03-24T05:19:54.969Z,94.76
2019-03-24T05:20:54.889Z,94.13
2019-03-24T05:21:54.894Z,94.65
2019-03-24T05:22:54.820Z,94.55
2019-03-24T05:23:54.791Z,93.41
2019-03-24T05:24:54.763Z,93.62
2019-03-24T05:25:54.728Z,93.82
2019-03-24T05:26:54.724Z,93.78
2019-03-24T05:27:54.649Z,93.41
2019-03-24T05:28:54.623Z,92.99
2019-03-24T05:29:54.586Z,92.88
2019-03-24T05:30:54.553Z,92.78
2019-03-24T05:31:54.555Z,92.88
2019-03-24T05:32:54.482Z,92.88
2019-03-24T05:33:54.464Z,92.99
2019-03-24T05:34:54.427Z,93.10
2019-03-24T05:35:54.380Z,93.03
2019-03-24T05:36:54.348Z,93.20
2019-03-24T05:37:54.364Z,92.68
2019-03-24T05:38:54.274Z,93.35
2019-03-24T05:39:54.242Z,92.88
2019-03-24T05:40:54.210Z,92.99
2019-03-24T05:41:54.171Z,92.68
2019-03-24T05:42:54.169Z,92.68
2019-03-24T05:43:54.108Z,92.99
2019-03-24T05:44:54.092Z,93.03
2019-03-24T05:45:54.036Z,92.93
2019-03-24T05:46:54.002Z,92.93
2019-03-24T05:47:53.992Z,92.88
2019-03-24T05:48:53.944Z,92.10
2019-03-24T05:49:53.910Z,92.47
2019-03-24T05:50:53.864Z,92.72
2019-03-24T05:51:53.836Z,92.61
2019-03-24T05:52:53.822Z,92.20
2019-03-24T05:53:53.762Z,93.03
2019-03-24T05:54:53.731Z,93.03
2019-03-24T05:55:53.696Z,93.14
2019-03-24T05:56:53.678Z,93.10
2019-03-24T05:57:53.652Z,93.20
2019-03-24T05:58:53.597Z,92.47
2019-03-24T05:59:53.558Z,92.68
2019-03-24T06:00:53.524Z,92.47
2019-03-24T06:01:53.487Z,92.16
2019-03-24T06:02:53.489Z,92.16
2019-03-24T06:03:53.420Z,91.85
2019-03-24T06:04:53.384Z,91.74
2019-03-24T06:05:53.354Z,91.33
2019-03-24T06:06:53.319Z,91.33
2019-03-24T06:07:53.317Z,91.53
2019-03-24T06:08:53.246Z,91.47
2019-03-24T06:09:53.210Z,91.64
2019-03-24T06:10:53.178Z,91.74
2019-03-24T06:11:53.185Z,91.43
2019-03-24T06:12:53.136Z,91.64
2019-03-24T06:13:53.083Z,91.95
2019-03-24T06:14:53.038Z,91.74
2019-03-24T06:15:53.005Z,91.53
2019-03-24T06:16:52.980Z,91.08
2019-03-24T06:17:53.181Z,91.08
2019-03-24T06:18:52.905Z,90.66
2019-03-24T06:19:52.868Z,90.45
2019-03-24T06:20:52.836Z,90.56
2019-03-24T06:21:52.799Z,89.89
2019-03-24T06:22:52.811Z,89.58
2019-03-24T06:23:52.743Z,89.69
2019-03-24T06:24:52.699Z,89.69
2019-03-24T06:25:52.664Z,88.85
2019-03-24T06:26:52.627Z,89.23
2019-03-24T06:27:52.626Z,88.82
2019-03-24T06:28:52.561Z,88.30
2019-03-24T06:29:52.526Z,88.82
2019-03-24T06:30:52.490Z,88.30
2019-03-24T06:31:52.455Z,87.95
2019-03-24T06:32:52.450Z,88.15
2019-03-24T06:33:52.391Z,87.22
2019-03-24T06:34:52.352Z,87.53
2019-03-24T06:35:52.319Z,86.87
2019-03-24T06:36:52.286Z,87.28
2019-03-24T06:37:52.252Z,86.55
2019-03-24T06:38:52.249Z,86.87
2019-03-24T06:39:52.184Z,85.58
2019-03-24T06:40:52.157Z,85.79
2019-03-24T06:41:52.117Z,85.58
2019-03-24T06:42:52.082Z,85.69
2019-03-24T06:43:52.082Z,85.44
2019-03-24T06:44:52.019Z,84.44
2019-03-24T06:45:51.982Z,85.13
2019-03-24T06:46:51.957Z,83.78
2019-03-24T06:47:58.005Z,84.20
2019-03-24T06:48:51.911Z,83.95
2019-03-24T06:49:51.847Z,82.92
2019-03-24T06:50:51.823Z,83.54
2019-03-24T06:51:51.786Z,83.64
2019-03-24T06:52:51.744Z,83.33
2019-03-24T06:53:51.748Z,82.40
2019-03-24T06:54:51.680Z,82.67
2019-03-24T06:55:51.652Z,82.36
2019-03-24T06:56:51.618Z,81.70
2019-03-24T06:57:51.590Z,81.81
2019-03-24T06:58:51.579Z,81.09
2019-03-24T06:59:51.511Z,80.53
2019-03-24T07:00:51.491Z,80.01
2019-03-24T07:01:51.448Z,79.77
2019-03-24T07:02:51.416Z,79.66
2019-03-24T07:03:51.409Z,79.77
2019-03-24T07:04:51.347Z,79.56
2019-03-24T07:05:51.320Z,78.84
2019-03-24T07:06:51.284Z,78.18
2019-03-24T07:07:51.251Z,78.18
2019-03-24T07:08:51.238Z,78.59
2019-03-24T07:09:51.189Z,77.87
2019-03-24T07:10:51.148Z,78.08
2019-03-24T07:11:51.137Z,78.80
2019-03-24T07:12:51.559Z,77.36
2019-03-24T07:13:51.077Z,78.14
2019-03-24T07:14:51.023Z,78.18
2019-03-24T07:15:50.984Z,78.35
2019-03-24T07:16:50.955Z,77.53
2019-03-24T07:17:50.924Z,78.25
2019-03-24T07:18:50.914Z,77.32
2019-03-24T07:19:50.857Z,78.25
2019-03-24T07:20:50.820Z,77.63
2019-03-24T07:21:50.796Z,77.39
2019-03-24T07:22:50.768Z,77.39
2019-03-24T07:23:50.748Z,76.73
2019-03-24T07:24:50.701Z,76.21
2019-03-24T07:25:50.703Z,76.32
2019-03-24T07:26:50.636Z,76.32
2019-03-24T07:27:50.598Z,76.84
2019-03-24T07:28:50.586Z,75.70
2019-03-24T07:29:50.530Z,76.63
2019-03-24T07:30:50.521Z,75.26
2019-03-24T07:31:50.473Z,75.26
2019-03-24T07:32:50.435Z,75.98
2019-03-24T07:33:50.431Z,75.49
2019-03-24T07:34:51.256Z,75.70
2019-03-24T07:35:50.343Z,75.77
2019-03-24T07:36:50.308Z,75.56
2019-03-24T07:37:50.276Z,75.63
2019-03-24T07:38:50.272Z,75.73
2019-03-24T07:39:50.220Z,75.77
2019-03-24T07:40:50.180Z,75.67
2019-03-24T07:41:50.148Z,75.67
2019-03-24T07:42:50.133Z,76.08
2019-03-24T07:43:50.104Z,75.70
2019-03-24T07:44:50.109Z,76.21
2019-03-24T07:45:50.035Z,76.29
2019-03-24T07:46:49.994Z,75.67
2019-03-24T07:47:49.960Z,76.18
2019-03-24T07:48:49.933Z,75.67
2019-03-24T07:49:49.922Z,75.26
2019-03-24T07:50:49.869Z,74.84
2019-03-24T07:51:49.833Z,74.84
2019-03-24T07:52:49.811Z,75.05
2019-03-24T07:53:49.782Z,73.91
2019-03-24T07:54:49.768Z,74.84
2019-03-24T07:55:49.721Z,74.74
2019-03-24T07:56:49.673Z,75.43
2019-03-24T07:57:49.647Z,74.80
2019-03-24T07:58:49.622Z,74.29
2019-03-24T07:59:49.611Z,74.77
2019-03-24T08:00:49.550Z,74.36
2019-03-24T08:01:49.525Z,73.50
2019-03-24T08:02:51.242Z,72.88
2019-03-24T08:03:49.462Z,72.37
2019-03-24T08:04:49.459Z,72.30
2019-03-24T08:05:49.392Z,73.02
2019-03-24T08:06:49.361Z,72.41
2019-03-24T08:07:49.339Z,73.23
2019-03-24T08:08:49.297Z,72.88
2019-03-24T08:09:49.296Z,72.68
2019-03-24T08:10:49.228Z,72.78
2019-03-24T08:11:49.209Z,72.58
2019-03-24T08:12:49.221Z,71.75
2019-03-24T08:13:54.547Z,71.89
2019-03-24T08:14:49.136Z,72.27
2019-03-24T08:15:49.085Z,72.06
2019-03-24T08:16:49.042Z,72.58
2019-03-24T08:17:49.008Z,71.44
2019-03-24T08:18:48.980Z,71.41
2019-03-24T08:19:48.972Z,71.51
2019-03-24T08:20:48.916Z,70.59
2019-03-24T08:21:48.884Z,70.14
2019-03-24T08:22:48.860Z,68.77
2019-03-24T08:23:48.832Z,67.85
2019-03-24T08:24:48.827Z,68.05
2019-03-24T08:25:48.762Z,68.02
2019-03-24T08:26:48.741Z,67.20
2019-03-24T08:27:48.743Z,67.95
2019-03-24T08:28:48.672Z,67.95
2019-03-24T08:29:48.669Z,67.54
2019-03-24T08:30:48.609Z,67.75
2019-03-24T08:31:48.579Z,67.95
2019-03-24T08:32:48.544Z,68.98
2019-03-24T08:33:48.507Z,68.77
2019-03-24T08:34:48.606Z,68.37
2019-03-24T08:35:48.458Z,68.46
2019-03-24T08:36:48.419Z,68.80
2019-03-24T08:37:48.387Z,67.95
2019-03-24T08:38:48.357Z,68.60
2019-03-24T08:39:48.352Z,68.60
2019-03-24T08:40:48.291Z,68.88
2019-03-24T08:41:48.283Z,68.16
2019-03-24T08:42:48.234Z,67.61
2019-03-24T08:43:48.204Z,67.17
2019-03-24T08:44:48.169Z,66.83
2019-03-24T08:45:48.165Z,65.80
2019-03-24T08:46:48.115Z,64.34
2019-03-24T08:47:48.078Z,64.31
2019-03-24T08:48:48.048Z,64.38
2019-03-24T08:49:48.030Z,63.91
2019-03-24T08:50:48.016Z,61.99
2019-03-24T08:51:48.004Z,62.58
2019-03-24T08:52:47.930Z,63.06
2019-03-24T08:53:47.997Z,61.60
2019-03-24T08:54:47.870Z,61.01
2019-03-24T08:55:47.885Z,60.27
2019-03-24T08:56:47.820Z,59.66
2019-03-24T08:57:47.790Z,60.17
2019-03-24T08:58:47.755Z,59.99
2019-03-24T08:59:47.727Z,60.40
2019-03-24T09:00:47.730Z,60.40
2019-03-24T09:01:47.674Z,60.53
2019-03-24T09:02:47.637Z,59.92
2019-03-24T09:03:47.600Z,59.07
2019-03-24T09:04:47.574Z,58.56
2019-03-24T09:05:47.607Z,59.99
2019-03-24T09:06:47.527Z,59.78
2019-03-24T09:07:48.489Z,59.27
2019-03-24T09:08:49.023Z,57.97
2019-03-24T09:09:47.429Z,59.61
2019-03-24T09:10:47.433Z,58.66
2019-03-24T09:11:47.370Z,58.56
2019-03-24T09:12:47.349Z,58.66
2019-03-24T09:13:47.327Z,57.51
2019-03-24T09:14:47.294Z,58.15
2019-03-24T09:15:47.286Z,58.38
2019-03-24T09:16:47.229Z,58.45
2019-03-24T09:17:47.273Z,58.15
2019-03-24T09:18:52.556Z,57.30
2019-03-24T09:19:47.139Z,57.64
2019-03-24T09:20:47.140Z,56.64
2019-03-24T09:21:47.091Z,56.92
2019-03-24T09:22:47.049Z,57.05
2019-03-24T09:23:47.023Z,57.07
2019-03-24T09:24:46.994Z,57.69
2019-03-24T09:25:47.002Z,57.61
2019-03-24T09:26:47.002Z,58.26
2019-03-24T09:27:46.908Z,58.56
2019-03-24T09:28:46.886Z,58.67
2019-03-24T09:29:46.845Z,59.00
2019-03-24T09:30:46.848Z,59.48
2019-03-24T09:31:46.788Z,59.52
2019-03-24T09:32:46.758Z,59.31
2019-03-24T09:33:46.731Z,59.31
2019-03-24T09:34:46.695Z,60.33
2019-03-24T09:35:46.694Z,59.82
2019-03-24T09:36:46.636Z,61.36
2019-03-24T09:37:46.620Z,61.46
2019-03-24T09:38:46.588Z,61.46
2019-03-24T09:39:46.573Z,61.46
2019-03-24T09:40:46.544Z,60.92
2019-03-24T09:41:46.499Z,61.33
2019-03-24T09:42:46.467Z,61.44
2019-03-24T09:43:46.438Z,61.23
2019-03-24T09:44:46.406Z,60.92
2019-03-24T09:45:46.369Z,61.05
2019-03-24T09:46:46.375Z,61.02
2019-03-24T09:47:46.329Z,60.75
2019-03-24T09:48:46.283Z,60.64
2019-03-24T09:49:46.254Z,61.13
2019-03-24T09:50:46.220Z,61.46
2019-03-24T09:51:46.220Z,60.95
2019-03-24T09:52:46.166Z,61.23
2019-03-24T09:53:46.160Z,61.54
2019-03-24T09:54:46.107Z,60.61
2019-03-24T09:55:46.076Z,60.33
2019-03-24T09:56:46.077Z,60.31
2019-03-24T09:57:46.008Z,60.85
2019-03-24T09:58:45.991Z,60.95
2019-03-24T09:59:45.946Z,61.36
2019-03-24T10:00:45.922Z,61.26
2019-03-24T10:01:45.931Z,61.33
2019-03-24T10:02:45.863Z,61.23
2019-03-24T10:03:45.829Z,61.95
2019-03-24T10:04:45.793Z,62.36
2019-03-24T10:05:45.767Z,61.13
2019-03-24T10:06:45.768Z,61.23
2019-03-24T10:07:45.706Z,61.36
2019-03-24T10:08:47.292Z,62.08
2019-03-24T10:09:45.658Z,62.18
2019-03-24T10:10:45.619Z,62.31
2019-03-24T10:11:45.627Z,62.52
2019-03-24T10:12:45.549Z,61.29
2019-03-24T10:13:45.590Z,61.77
2019-03-24T10:14:45.491Z,60.75
2019-03-24T10:15:45.466Z,60.98
2019-03-24T10:16:45.471Z,60.85
2019-03-24T10:17:45.513Z,60.54
2019-03-24T10:18:45.407Z,59.72
2019-03-24T10:19:45.392Z,60.00
2019-03-24T10:20:45.356Z,58.97
2019-03-24T10:21:45.279Z,58.77
2019-03-24T10:22:45.250Z,60.28
2019-03-24T10:23:45.248Z,59.12
2019-03-24T10:24:45.194Z,58.51
2019-03-24T10:25:45.204Z,58.81
2019-03-24T10:26:45.125Z,58.40
2019-03-24T10:27:45.154Z,56.77
2019-03-24T10:28:45.070Z,57.10
2019-03-24T10:29:45.030Z,57.20
2019-03-24T10:30:52.088Z,57.61
2019-03-24T10:31:44.972Z,57.51
2019-03-24T10:32:44.943Z,57.23
2019-03-24T10:33:44.915Z,58.26
2019-03-24T10:34:44.876Z,59.28
2019-03-24T10:35:44.895Z,58.56
2019-03-24T10:36:44.831Z,59.38
2019-03-24T10:37:44.784Z,59.18
2019-03-24T10:38:44.759Z,60.10
2019-03-24T10:39:44.732Z,57.54
2019-03-24T10:40:44.753Z,57.95
2019-03-24T10:41:44.665Z,57.54
2019-03-24T10:42:44.635Z,56.62
2019-03-24T10:43:44.660Z,56.82
2019-03-24T10:44:44.584Z,57.54
2019-03-24T10:45:44.540Z,58.56
2019-03-24T10:46:44.598Z,58.36
2019-03-24T10:47:44.494Z,59.18
2019-03-24T10:48:44.455Z,57.95
2019-03-24T10:49:44.421Z,57.51
2019-03-24T10:50:44.388Z,58.54
2019-03-24T10:51:44.401Z,57.59
2019-03-24T10:52:44.329Z,58.72
2019-03-24T10:53:44.303Z,55.23
2019-03-24T10:54:44.265Z,55.02
2019-03-24T10:55:44.287Z,56.05
2019-03-24T10:56:44.203Z,54.92
2019-03-24T10:57:44.184Z,54.72
2019-03-24T10:58:44.191Z,54.82
2019-03-24T10:59:44.114Z,55.10
2019-03-24T11:00:44.085Z,54.49
2019-03-24T11:01:44.096Z,54.59
2019-03-24T11:02:44.024Z,53.85
2019-03-24T11:03:44.021Z,52.64
2019-03-24T11:04:43.964Z,53.75
2019-03-24T11:05:43.978Z,54.77
2019-03-24T11:06:43.907Z,53.87
2019-03-24T11:07:43.920Z,53.05
2019-03-24T11:08:43.840Z,52.34
2019-03-24T11:09:45.068Z,53.05
2019-03-24T11:10:43.806Z,52.87
2019-03-24T11:11:43.752Z,52.05
2019-03-24T11:12:43.745Z,52.47
2019-03-24T11:13:43.693Z,53.80
2019-03-24T11:14:43.680Z,53.97
2019-03-24T11:15:43.631Z,52.13
2019-03-24T11:16:43.602Z,51.93
2019-03-24T11:17:43.614Z,52.44
2019-03-24T11:18:43.544Z,52.85
2019-03-24T11:19:43.519Z,52.51
2019-03-24T11:20:43.480Z,52.42
2019-03-24T11:21:43.448Z,51.80
2019-03-24T11:22:43.450Z,51.08
2019-03-24T11:23:43.388Z,50.78
2019-03-24T11:24:43.356Z,49.55
2019-03-24T11:25:43.330Z,49.75
2019-03-24T11:26:43.297Z,48.52
2019-03-24T11:27:43.332Z,49.04
2019-03-24T11:28:43.235Z,48.40
2019-03-24T11:29:43.212Z,48.40
2019-03-24T11:30:43.178Z,49.11
2019-03-24T11:31:43.149Z,48.27
2019-03-24T11:32:43.139Z,47.56
2019-03-24T11:33:43.094Z,47.74
2019-03-24T11:34:43.054Z,47.23
2019-03-24T11:35:43.026Z,47.74
2019-03-24T11:36:43.003Z,48.23
2019-03-24T11:37:42.991Z,48.02
2019-03-24T11:38:42.934Z,47.82
2019-03-24T11:39:42.943Z,48.43
2019-03-24T11:40:42.878Z,49.25
2019-03-24T11:41:42.850Z,48.33
2019-03-24T11:42:42.821Z,46.06
2019-03-24T11:43:42.838Z,46.14
2019-03-24T11:44:42.762Z,45.02
2019-03-24T11:45:42.809Z,45.53
2019-03-24T11:46:42.707Z,46.02
2019-03-24T11:47:42.669Z,44.49
2019-03-24T11:48:42.665Z,44.06
2019-03-24T11:49:46.182Z,43.94
2019-03-24T11:50:42.597Z,43.32
2019-03-24T11:51:42.554Z,42.69
2019-03-24T11:52:42.529Z,43.12
2019-03-24T11:53:42.521Z,43.43
2019-03-24T11:54:42.467Z,43.43
2019-03-24T11:55:42.574Z,43.43
2019-03-24T11:56:42.412Z,42.08
2019-03-24T11:57:42.384Z,41.78
2019-03-24T11:58:42.506Z,40.64
2019-03-24T11:59:42.328Z,41.05
2019-03-24T12:00:42.294Z,41.16
2019-03-24T12:01:42.274Z,40.45
2019-03-24T12:02:42.246Z,39.23
2019-03-24T12:03:42.239Z,39.53
2019-03-24T12:04:42.187Z,39.03
2019-03-24T12:05:42.174Z,39.01
2019-03-24T12:06:42.134Z,39.01
2019-03-24T12:07:42.102Z,39.84
2019-03-24T12:08:42.097Z,40.86
2019-03-24T12:09:42.053Z,39.03
2019-03-24T12:10:42.024Z,39.13
2019-03-24T12:11:41.990Z,39.23
2019-03-24T12:12:41.970Z,39.42
2019-03-24T12:13:41.963Z,39.29
2019-03-24T12:14:41.908Z,38.38
2019-03-24T12:15:41.927Z,38.40
2019-03-24T12:16:41.861Z,37.34
2019-03-24T12:17:41.842Z,37.54
2019-03-24T12:18:41.825Z,37.53
2019-03-24T12:19:41.814Z,37.34
2019-03-24T12:20:42.322Z,39.60
2019-03-24T12:21:41.781Z,39.09
2019-03-24T12:22:41.758Z,37.04
2019-03-24T12:23:41.687Z,37.65
2019-03-24T12:24:41.653Z,37.34
2019-03-24T12:25:41.622Z,37.24
2019-03-24T12:26:41.589Z,37.14
2019-03-24T12:27:41.634Z,37.65
2019-03-24T12:28:46.230Z,38.15
2019-03-24T12:29:41.644Z,39.06
2019-03-24T12:30:41.557Z,37.45
2019-03-24T12:31:41.518Z,37.85
2019-03-24T12:32:41.551Z,37.56
2019-03-24T12:33:41.423Z,36.53
2019-03-24T12:34:41.379Z,37.41
2019-03-24T12:35:41.346Z,37.08
2019-03-24T12:36:41.321Z,37.27
2019-03-24T12:37:41.353Z,36.85
2019-03-24T12:38:41.289Z,37.46
2019-03-24T12:39:41.240Z,38.47
2019-03-24T12:40:41.233Z,38.18
2019-03-24T12:41:41.185Z,39.42
2019-03-24T12:42:41.257Z,38.22
2019-03-24T12:43:41.132Z,38.93
2019-03-24T12:44:41.135Z,38.93
2019-03-24T12:45:41.078Z,39.95
2019-03-24T12:46:41.052Z,39.04
2019-03-24T12:47:41.032Z,40.37
2019-03-24T12:48:40.997Z,39.26
2019-03-24T12:49:41.036Z,40.01
2019-03-24T12:50:40.945Z,41.63
2019-03-24T12:51:40.939Z,41.94